Facebook Twitter

Wetterstation Koblenz (Falckensteinkaserne)

Messwerte
  Temperatur Wetter Niederschlag Luftdruck Wind
So, 04:00 Uhr 1° - - 1030 hPa 4 km/h O
So, 03:00 Uhr 2° - - 1030.2 hPa 7 km/h SO
So, 02:00 Uhr 2° - - 1030.2 hPa 7 km/h N
So, 01:00 Uhr 3° - - 1030.6 hPa 4 km/h N
So, 00:00 Uhr 3° - - 1030.7 hPa 4 km/h N
Sa, 23:00 Uhr 4° - - 1030.8 hPa 4 km/h SO
Sa, 22:00 Uhr 5° - - 1030.9 hPa 11 km/h O
Sa, 21:00 Uhr 5° - - 1030.4 hPa 11 km/h NO
Sa, 20:00 Uhr 7° - - 1029.9 hPa 11 km/h O
Sa, 19:00 Uhr 7° - - 1029.7 hPa 11 km/h O
Sa, 18:00 Uhr 8° - - 1029.7 hPa 7 km/h O
Sa, 17:00 Uhr 9° - - 1029.4 hPa 7 km/h O
Sa, 16:00 Uhr 10° - - 1029.3 hPa 11 km/h O
Sa, 15:00 Uhr 10° - - 1029.3 hPa 7 km/h SO
Sa, 14:00 Uhr 10° - - 1029.5 hPa 11 km/h O
Sa, 13:00 Uhr 9° - - 1030.3 hPa 4 km/h SW
Sa, 12:00 Uhr 7° - - 1030.6 hPa 4 km/h N
Sa, 11:00 Uhr 5° - - 1031.1 hPa 4 km/h N
Sa, 09:00 Uhr 1° - - 1031.5 hPa 7 km/h S
Sa, 08:00 Uhr 1° - - 1031.2 hPa 7 km/h S

Alle Zeitangaben MEZ